»·PEaware :: N210TM KTVL-L70

N210TM :: KTVL-L70

FLIGHT INFORMATION

Flight Status: Arrived
Operator: Privately registered:
United States
More flights under this callsign
Pilot: Anonymous 16446 (16446)
Aircraft: CESSNA T210 TURBO CENTURION
(T210)
More flights by this aircraft type
Origin: KTVL Lake Tahoe
United States
Destination: L70 Agua Dulce
United States
More flights between these airports :: More routes between these airports
Route: + MARRI V165 CZQ V23 EHF BFL LHS
File this flight plan on PilotEdge
Remarks:
Altitude:
(Current/Filed)
21,000ft
Speed:
(Current/Filed)
250kts
Departed: 09-Dec-17 07:49 PM
Arrived: 09-Dec-17 09:28 PM
Distance/Time
Traveled:
276nm/1:39
Distance/Time
To Go:
Arrived

Flight Plot

Page will automatically refresh every two minutes.

Flight plan parsing failed; only flown route is shown


Map Options




Map Legend


Flown Route
Filed Route
Departure Airport
Arrival Airport
Navaid (VOR, NDB)
Fix

Horizontal Profiles

Position Reports

Time Latitude Longitude Heading Altitude Ground
Speed
09-Dec-17 19:34 38.889618 -119.999095 102 6237ft 0kts
09-Dec-17 19:35 38.889618 -119.999095 102 6237ft 0kts
09-Dec-17 19:36 38.889618 -119.999095 102 6237ft 0kts
09-Dec-17 19:37 38.889618 -119.999095 102 6237ft 0kts
09-Dec-17 19:38 38.889618 -119.999095 102 6237ft 0kts
09-Dec-17 19:39 38.889618 -119.999095 102 6237ft 0kts
09-Dec-17 19:40 38.889618 -119.999095 102 6237ft 0kts
09-Dec-17 19:41 38.889618 -119.999095 102 6237ft 0kts
09-Dec-17 19:42 38.889618 -119.999095 102 6237ft 0kts
09-Dec-17 19:43 38.889334 -119.998280 140 6237ft 3kts
09-Dec-17 19:44 38.889328 -119.998192 48 6237ft 0kts
09-Dec-17 19:45 38.889328 -119.998192 48 6237ft 0kts
09-Dec-17 19:46 38.889328 -119.998192 48 6237ft 0kts
09-Dec-17 19:47 38.889328 -119.998192 48 6237ft 0kts
09-Dec-17 19:48 38.887952 -119.998045 191 6237ft 11kts
09-Dec-17 19:49 38.884076 -119.999222 192 6237ft 14kts
09-Dec-17 19:50 38.882646 -119.999595 50 6237ft 0kts
09-Dec-17 19:51 38.882646 -119.999595 50 6237ft 0kts
09-Dec-17 19:52 38.882646 -119.999595 50 6237ft 0kts
09-Dec-17 19:54 38.882682 -119.999525 68 6237ft 2kts
09-Dec-17 19:55 38.887111 -119.997305 14 6237ft 78kts
09-Dec-17 19:56 38.913381 -119.991533 5 6968ft 109kts
09-Dec-17 19:57 38.944341 -119.989665 12 8083ft 110kts
09-Dec-17 19:58 38.968196 -119.969479 77 8997ft 106kts
09-Dec-17 19:59 38.969327 -119.931685 97 9900ft 107kts
09-Dec-17 20:00 38.960813 -119.895399 122 10793ft 108kts
09-Dec-17 20:01 38.939369 -119.868970 162 11653ft 113kts
09-Dec-17 20:02 38.908172 -119.861942 169 12517ft 116kts
09-Dec-17 20:03 38.875924 -119.859236 179 13369ft 118kts
09-Dec-17 20:04 38.842923 -119.861732 187 14232ft 118kts
09-Dec-17 20:05 38.809775 -119.862948 175 15064ft 121kts
09-Dec-17 20:06 38.776173 -119.859881 176 15904ft 123kts
09-Dec-17 20:07 38.741791 -119.858649 178 16710ft 127kts
09-Dec-17 20:08 38.707236 -119.854987 169 17542ft 126kts
09-Dec-17 20:09 38.671725 -119.846355 167 18235ft 133kts
09-Dec-17 20:10 38.635703 -119.837658 174 18933ft 136kts
09-Dec-17 20:11 38.597209 -119.840437 183 19545ft 140kts
09-Dec-17 20:12 38.558988 -119.845294 186 20170ft 139kts
09-Dec-17 20:13 38.520277 -119.852850 187 20713ft 141kts
09-Dec-17 20:14 38.480551 -119.854576 179 21150ft 149kts
09-Dec-17 20:15 38.438485 -119.855339 178 21605ft 158kts
09-Dec-17 20:16 38.391310 -119.851101 173 21713ft 174kts
09-Dec-17 20:17 38.346155 -119.848080 178 21698ft 186kts
09-Dec-17 20:18 38.294375 -119.846952 176 21780ft 187kts
09-Dec-17 20:19 38.240826 -119.847707 182 21658ft 198kts
09-Dec-17 20:20 38.186328 -119.852871 183 21705ft 196kts
09-Dec-17 20:21 38.132060 -119.845527 171 21649ft 198kts
09-Dec-17 20:22 38.077085 -119.839330 175 21631ft 199kts
09-Dec-17 20:23 38.021415 -119.836806 177 21590ft 202kts
09-Dec-17 20:24 37.964761 -119.835325 177 21544ft 204kts
09-Dec-17 20:25 37.907888 -119.834148 178 21502ft 204kts
09-Dec-17 20:26 37.852631 -119.833114 178 21507ft 203kts
09-Dec-17 20:27 37.796119 -119.832050 178 21513ft 203kts
09-Dec-17 20:28 37.739753 -119.830984 178 21517ft 203kts
09-Dec-17 20:29 37.683398 -119.829928 178 21516ft 203kts
09-Dec-17 20:30 37.627178 -119.828861 177 21515ft 203kts
09-Dec-17 20:31 37.570750 -119.827832 178 21515ft 203kts
09-Dec-17 20:32 37.514543 -119.826786 178 21517ft 203kts
09-Dec-17 20:33 37.458118 -119.825727 178 21519ft 203kts
09-Dec-17 20:34 37.401767 -119.824679 178 21519ft 203kts
09-Dec-17 20:35 37.345672 -119.823638 178 21519ft 203kts
09-Dec-17 20:36 37.289208 -119.822590 178 21519ft 203kts
09-Dec-17 20:37 37.233010 -119.821552 178 21518ft 203kts
09-Dec-17 20:38 37.176629 -119.820509 178 21515ft 203kts
09-Dec-17 20:39 37.120204 -119.819471 178 21513ft 203kts
09-Dec-17 20:40 37.063888 -119.818436 178 21512ft 203kts
09-Dec-17 20:41 37.007530 -119.817400 177 21512ft 203kts
09-Dec-17 20:42 36.950954 -119.816362 177 21512ft 203kts
09-Dec-17 20:43 36.896468 -119.815362 177 21512ft 203kts
09-Dec-17 20:44 36.843456 -119.801852 151 21514ft 202kts
09-Dec-17 20:45 36.792853 -119.772027 155 21511ft 202kts
09-Dec-17 20:45 36.751179 -119.745913 140 21513ft 202kts
09-Dec-17 20:47 36.696117 -119.702191 152 21515ft 202kts
09-Dec-17 20:47 36.653641 -119.677612 155 21516ft 202kts
09-Dec-17 20:48 36.601836 -119.650349 156 21516ft 202kts
09-Dec-17 20:50 36.541195 -119.619529 157 21517ft 202kts
09-Dec-17 20:50 36.497828 -119.597731 157 21518ft 202kts
09-Dec-17 20:52 36.437001 -119.567278 157 21519ft 202kts
09-Dec-17 20:52 36.393659 -119.545611 157 21519ft 202kts
09-Dec-17 20:53 36.341484 -119.519551 157 21519ft 202kts
09-Dec-17 20:54 36.289336 -119.493548 157 21519ft 202kts
09-Dec-17 20:55 36.239635 -119.468811 157 21519ft 202kts
09-Dec-17 20:56 36.187520 -119.442910 157 21519ft 202kts
09-Dec-17 20:57 36.135355 -119.417019 157 21519ft 202kts
09-Dec-17 20:58 36.083208 -119.391171 157 21519ft 202kts
09-Dec-17 20:59 36.031326 -119.365493 157 21519ft 202kts
09-Dec-17 21:00 35.980661 -119.340217 156 21519ft 202kts
09-Dec-17 21:01 35.928521 -119.314300 157 21519ft 202kts
09-Dec-17 21:02 35.889455 -119.295140 158 21520ft 202kts
09-Dec-17 21:03 35.846404 -119.274272 157 21520ft 202kts
09-Dec-17 21:04 35.799282 -119.251158 157 21520ft 203kts
09-Dec-17 21:05 35.747099 -119.225560 157 21520ft 203kts
09-Dec-17 21:06 35.694879 -119.199937 157 21520ft 203kts
09-Dec-17 21:07 35.642466 -119.174288 157 21520ft 203kts
09-Dec-17 21:08 35.590304 -119.148787 157 21520ft 203kts
09-Dec-17 21:09 35.538640 -119.123556 157 21520ft 202kts
09-Dec-17 21:10 35.486970 -119.098359 157 21520ft 203kts
09-Dec-17 21:11 35.438305 -119.065234 148 21520ft 202kts
09-Dec-17 21:12 35.389201 -119.031579 150 21520ft 202kts
09-Dec-17 21:13 35.339725 -118.998965 151 21519ft 202kts
09-Dec-17 21:14 35.290421 -118.966882 151 21519ft 201kts
09-Dec-17 21:15 35.238762 -118.933472 151 20992ft 221kts
09-Dec-17 21:16 35.180698 -118.896043 151 20334ft 264kts
09-Dec-17 21:17 35.112796 -118.853006 154 22079ft 270kts
09-Dec-17 21:18 35.047408 -118.817493 151 21498ft 258kts
09-Dec-17 21:19 34.983350 -118.782882 159 20393ft 264kts
09-Dec-17 21:20 34.929167 -118.756484 145 20204ft 227kts
09-Dec-17 21:21 34.889371 -118.726178 147 18039ft 231kts
09-Dec-17 21:22 34.833692 -118.679432 139 16796ft 248kts
09-Dec-17 21:23 34.783049 -118.627021 140 16882ft 223kts
09-Dec-17 21:24 34.739594 -118.588388 144 15217ft 199kts
09-Dec-17 21:25 34.692334 -118.550973 143 12555ft 218kts
09-Dec-17 21:26 34.644075 -118.512797 142 10595ft 201kts
09-Dec-17 21:27 34.605030 -118.473882 135 8973ft 170kts
09-Dec-17 21:28 34.573446 -118.435082 121 7398ft 159kts
09-Dec-17 21:29 34.548354 -118.393421 123 5754ft 156kts
09-Dec-17 21:30 34.524916 -118.350044 120 4064ft 153kts
09-Dec-17 21:31 34.522948 -118.317671 63 3567ft 110kts
09-Dec-17 21:32 34.515387 -118.292227 213 3302ft 88kts
09-Dec-17 21:33 34.504374 -118.311794 294 2612ft 5kts
09-Dec-17 21:34 34.503495 -118.314037 231 2612ft 14kts
09-Dec-17 21:35 34.503217 -118.314765 132 2612ft 0kts

Navigation Log

Ident Type
Flight plan parsing failed, navigation log unavailable